Nona Bulker — 3EWR6 — position and weather

sailwx.info

Track history (hours):
 
Tides and Currents Weather Stations Pressure Air Temp Water Temp Dewpoint Dewpoint Depression Visibility Wind Speed Wind Dir Waves Ship Positions

Nona Bulker

Last reported at 2018-Feb-04 14:25 UTC. Time now 2018-Feb-23 04:40 UTC.
Position N 09°08' W 015°42'.
Warning: this ship's position is 18 days out of date.

Length 175 m; draft 9.8 m.

Type: Cargo ship. MMSI: 356091000.

Date/timePositionNaut miles runAvg speedWind from/ knotsBaromVisibWave heightAir tempDewpointWater temp
2018-Feb-04 14:25N 09°08' W 015°42'612.4
2018-Feb-04 13:58N 09°12' W 015°46'612.2
2018-Feb-04 13:30N 09°16' W 015°50'612.1
2018-Feb-04 13:00N 09°20' W 015°54'712.3
2018-Feb-04 12:28N 09°25' W 015°59'612.5
2018-Feb-04 12:00N 09°29' W 016°03'612.1
2018-Feb-04 11:30N 09°33' W 016°08'1812.0
2018-Feb-04 10:00N 09°46' W 016°20'1212.1
2018-Feb-04 09:00N 09°55' W 016°29'612.3
2018-Feb-04 08:30N 09°60' W 016°33'612.4
2018-Feb-04 08:00N 10°04' W 016°37'2012.4
2018-Feb-04 06:23N 10°18' W 016°51'512.3
2018-Feb-04 05:57N 10°22' W 016°55'512.2
2018-Feb-04 05:30N 10°26' W 016°59'712.3
2018-Feb-04 04:58N 10°31' W 017°04'  
Track history (hours):
 
Tides and Currents Weather Stations Pressure Air Temp Water Temp Dewpoint Dewpoint Depression Visibility Wind Speed Wind Dir Waves Ship Positions

Nona Bulker

Last reported at 2018-Feb-04 14:25 UTC. Time now 2018-Feb-23 04:40 UTC.
Position N 09°08' W 015°42'.
Warning: this ship's position is 18 days out of date.

Length 175 m; draft 9.8 m.

Type: Cargo ship. MMSI: 356091000.

Date/timePositionNaut miles runAvg speedWind from/ knotsBaromVisibWave heightAir tempDewpointWater temp
2018-Feb-04 14:25N 09°08' W 015°42'612.4
2018-Feb-04 13:58N 09°12' W 015°46'612.2
2018-Feb-04 13:30N 09°16' W 015°50'612.1
2018-Feb-04 13:00N 09°20' W 015°54'712.3
2018-Feb-04 12:28N 09°25' W 015°59'612.5
2018-Feb-04 12:00N 09°29' W 016°03'612.1
2018-Feb-04 11:30N 09°33' W 016°08'1812.0
2018-Feb-04 10:00N 09°46' W 016°20'1212.1
2018-Feb-04 09:00N 09°55' W 016°29'612.3
2018-Feb-04 08:30N 09°60' W 016°33'612.4
2018-Feb-04 08:00N 10°04' W 016°37'2012.4
2018-Feb-04 06:23N 10°18' W 016°51'512.3
2018-Feb-04 05:57N 10°22' W 016°55'512.2
2018-Feb-04 05:30N 10°26' W 016°59'712.3
2018-Feb-04 04:58N 10°31' W 017°04'  

Dump ship's entire track history